Terminal Aerodrome Forecast
Issued by NWS Mt. Holly, NJ

Home | Current Version | Previous Version | Text Only | Print | Product List | Glossary On
Versions: 1 2 3 4 5 6 7 8 9 10 11 12 13 14 15 16 17 18 19 20 21 22 23 24 25
835
FTUS41 KPHI 090052 AAA
TAFPHL
TAF AMD
KPHL 090052Z 0901/1006 10008KT P6SM VCSH SCT025 OVC035
      TEMPO 0901/0904 -RASN OVC025
     FM090400 08006KT 4SM -SN OVC010
     FM090700 05010KT 3/4SM -SN OVC006
     FM091200 05012KT 4SM -SN OVC010
     FM092100 01010KT 1/2SM SN OVC005
     FM100300 34008KT 1SM -SN OVC008=

USA.gov is the U.S. government's official web portal to all federal, state and local government web resources and services.